Time;durP1;ratioP1;P1;durP2;ratioP2;P2;SDS_P1;SDS_P2;PMS_P1;PMS_P2;Temp;Humidity;BMP_temperature;BMP_pressure;BME280_temperature;BME280_humidity;BME280_pressure;Samples;Min_cycle;Max_cycle;Signal;HPM_P1;HPM_P2
2022/11/07 00:00:39;;;;;;;10.82;9.13;;;;;;;;;;5052080;28;20387;-82
2022/11/07 00:03:06;;;;;;;13.25;8.70;;;;;;;;;;5051744;28;20052;-82
2022/11/07 00:05:33;;;;;;;9.60;8.38;;;;;;;;;;5053146;28;20470;-82
2022/11/07 00:08:01;;;;;;;9.95;8.95;;;;;;;;;;5052108;28;20060;-81
2022/11/07 00:10:28;;;;;;;11.43;9.00;;;;;;;;;;5051851;28;20056;-82
2022/11/07 00:12:55;;;;;;;12.18;8.77;;;;;;;;;;5051780;28;20419;-82
2022/11/07 00:15:22;;;;;;;12.07;9.98;;;;;;;;;;5051688;28;20048;-81
2022/11/07 00:17:49;;;;;;;10.55;8.95;;;;;;;;;;5054449;28;20056;-84
2022/11/07 00:20:17;;;;;;;11.23;8.75;;;;;;;;;;5052978;28;20132;-81
2022/11/07 00:22:44;;;;;;;11.15;8.90;;;;;;;;;;5051155;28;20051;-81
2022/11/07 00:25:11;;;;;;;9.85;8.45;;;;;;;;;;5054024;28;20041;-83
2022/11/07 00:27:38;;;;;;;10.70;8.43;;;;;;;;;;5056296;28;20041;-83
2022/11/07 00:30:06;;;;;;;12.60;8.43;;;;;;;;;;5057774;28;20049;-82
2022/11/07 00:32:33;;;;;;;9.90;8.20;;;;;;;;;;5056820;28;20132;-83
2022/11/07 00:35:00;;;;;;;9.68;8.23;;;;;;;;;;5058107;28;20056;-84
2022/11/07 00:37:27;;;;;;;13.50;8.95;;;;;;;;;;5055575;28;20056;-83
2022/11/07 00:39:54;;;;;;;9.75;8.02;;;;;;;;;;5052381;28;20057;-81
2022/11/07 00:42:22;;;;;;;9.48;7.97;;;;;;;;;;5055621;28;20041;-83
2022/11/07 00:44:49;;;;;;;10.55;8.75;;;;;;;;;;5055912;28;20435;-83
2022/11/07 00:47:16;;;;;;;11.05;8.38;;;;;;;;;;5055845;28;20481;-83
2022/11/07 00:49:43;;;;;;;21.58;9.07;;;;;;;;;;5056192;28;20045;-83
2022/11/07 00:52:10;;;;;;;8.65;7.75;;;;;;;;;;5054580;28;20063;-85
2022/11/07 00:54:38;;;;;;;7.63;6.85;;;;;;;;;;5054570;28;20063;-83
2022/11/07 00:57:05;;;;;;;11.30;7.30;;;;;;;;;;5054584;28;20045;-83
2022/11/07 00:59:32;;;;;;;12.55;7.00;;;;;;;;;;5054923;28;20422;-82
2022/11/07 01:01:59;;;;;;;7.55;6.80;;;;;;;;;;5059222;28;20053;-82
2022/11/07 01:07:13;;;;;;;7.50;6.75;;;;;;;;;;5061380;28;20045;-82
2022/11/07 01:09:40;;;;;;;11.95;6.90;;;;;;;;;;5057977;28;20049;-83
2022/11/07 01:12:07;;;;;;;9.55;6.60;;;;;;;;;;5057899;28;20071;-83
2022/11/07 01:14:35;;;;;;;8.98;7.03;;;;;;;;;;5058590;28;20059;-84
2022/11/07 01:17:02;;;;;;;9.40;6.75;;;;;;;;;;5058379;28;20049;-83
2022/11/07 01:19:29;;;;;;;9.27;6.93;;;;;;;;;;5058901;28;20430;-82
2022/11/07 01:21:57;;;;;;;10.00;7.15;;;;;;;;;;5057627;28;20052;-80
2022/11/07 01:24:24;;;;;;;8.50;6.60;;;;;;;;;;5056688;28;20049;-82
2022/11/07 01:26:51;;;;;;;7.45;6.75;;;;;;;;;;5057773;28;20052;-84
2022/11/07 01:29:19;;;;;;;7.40;6.70;;;;;;;;;;5057595;28;20049;-82
2022/11/07 01:31:46;;;;;;;8.05;6.85;;;;;;;;;;5058309;28;20045;-83
2022/11/07 01:34:13;;;;;;;8.48;6.30;;;;;;;;;;5057968;28;20049;-82
2022/11/07 01:36:41;;;;;;;7.65;6.50;;;;;;;;;;5056498;28;20063;-84
2022/11/07 01:39:08;;;;;;;7.32;6.18;;;;;;;;;;5058015;28;20060;-81
2022/11/07 01:41:36;;;;;;;7.07;6.35;;;;;;;;;;5056497;28;20056;-84
2022/11/07 01:44:06;;;;;;;8.52;6.30;;;;;;;;;;5055886;28;20049;-83
2022/11/07 01:46:35;;;;;;;12.38;7.18;;;;;;;;;;5058425;28;20053;-82
2022/11/07 01:49:05;;;;;;;9.63;6.65;;;;;;;;;;5057211;28;20079;-81
2022/11/07 01:51:37;;;;;;;8.13;6.57;;;;;;;;;;5057409;28;20045;-80
2022/11/07 01:54:05;;;;;;;8.00;6.68;;;;;;;;;;5056096;28;20052;-84
2022/11/07 01:56:33;;;;;;;8.38;6.57;;;;;;;;;;5057683;28;20127;-84
2022/11/07 01:59:01;;;;;;;7.53;6.78;;;;;;;;;;5057668;28;20056;-83
2022/11/07 02:01:29;;;;;;;7.53;6.45;;;;;;;;;;5055719;28;20490;-83
2022/11/07 02:03:57;;;;;;;7.22;6.53;;;;;;;;;;5055233;28;20404;-82
2022/11/07 02:06:27;;;;;;;6.57;5.97;;;;;;;;;;5055780;28;20049;-83
2022/11/07 02:08:54;;;;;;;11.20;7.20;;;;;;;;;;5057311;28;20047;-81
2022/11/07 02:11:22;;;;;;;9.30;5.97;;;;;;;;;;5056600;28;20067;-82
2022/11/07 02:13:49;;;;;;;9.02;6.88;;;;;;;;;;5056617;28;20063;-83
2022/11/07 02:16:16;;;;;;;11.45;6.20;;;;;;;;;;5053895;28;20045;-81
2022/11/07 02:18:44;;;;;;;8.55;6.57;;;;;;;;;;5053264;28;20135;-81
2022/11/07 02:21:21;;;;;;;6.72;6.03;;;;;;;;;;5055399;28;20045;-81
2022/11/07 02:23:56;;;;;;;8.73;6.15;;;;;;;;;;5053097;28;20048;-82
2022/11/07 02:26:24;;;;;;;8.32;6.30;;;;;;;;;;5054656;28;20123;-82
2022/11/07 02:28:52;;;;;;;7.75;6.40;;;;;;;;;;5053214;28;20079;-83
2022/11/07 02:31:19;;;;;;;7.38;5.97;;;;;;;;;;5053532;28;20128;-82
2022/11/07 02:33:46;;;;;;;9.05;7.18;;;;;;;;;;5054562;28;20218;-81
2022/11/07 02:36:15;;;;;;;10.10;6.80;;;;;;;;;;5053306;28;20049;-83
2022/11/07 02:38:43;;;;;;;7.18;6.47;;;;;;;;;;5053940;28;20426;-81
2022/11/07 02:41:21;;;;;;;8.13;6.40;;;;;;;;;;5053633;28;20059;-82
2022/11/07 02:43:51;;;;;;;6.45;5.78;;;;;;;;;;5054617;28;20048;-82
2022/11/07 02:46:19;;;;;;;9.07;6.10;;;;;;;;;;5053531;28;20053;-81
2022/11/07 02:48:49;;;;;;;6.88;6.10;;;;;;;;;;5053185;28;20051;-83
2022/11/07 02:51:16;;;;;;;6.85;5.70;;;;;;;;;;5053477;28;20487;-81
2022/11/07 02:53:43;;;;;;;9.40;6.10;;;;;;;;;;5054178;28;20402;-81
2022/11/07 02:56:10;;;;;;;6.25;5.53;;;;;;;;;;5053055;28;20059;-82
2022/11/07 02:58:38;;;;;;;6.40;5.78;;;;;;;;;;5053064;28;20049;-82
2022/11/07 03:01:05;;;;;;;6.30;5.70;;;;;;;;;;5052952;28;20051;-82
2022/11/07 03:03:37;;;;;;;8.07;5.78;;;;;;;;;;5052699;28;20051;-82
2022/11/07 03:06:06;;;;;;;5.20;4.70;;;;;;;;;;5052723;28;20053;-81
2022/11/07 03:08:33;;;;;;;6.05;5.30;;;;;;;;;;5053691;28;20051;-83
2022/11/07 03:11:00;;;;;;;6.18;4.55;;;;;;;;;;5054282;28;20052;-82
2022/11/07 03:13:28;;;;;;;6.85;5.07;;;;;;;;;;5054804;28;20057;-82
2022/11/07 03:15:55;;;;;;;4.85;4.43;;;;;;;;;;5052821;28;20045;-81
2022/11/07 03:18:22;;;;;;;5.50;4.90;;;;;;;;;;5052985;28;20053;-82
2022/11/07 03:20:49;;;;;;;5.93;5.22;;;;;;;;;;5052975;28;20057;-82
2022/11/07 03:23:17;;;;;;;5.32;4.45;;;;;;;;;;5052282;28;20137;-81
2022/11/07 03:25:44;;;;;;;5.53;4.72;;;;;;;;;;5052518;28;20128;-83
2022/11/07 03:28:11;;;;;;;6.60;5.50;;;;;;;;;;5052627;28;20049;-82
2022/11/07 03:30:38;;;;;;;5.20;4.70;;;;;;;;;;5053718;28;20140;-82
2022/11/07 03:33:06;;;;;;;5.53;4.95;;;;;;;;;;5052142;28;20139;-82
2022/11/07 03:35:33;;;;;;;6.25;5.03;;;;;;;;;;5051961;28;20049;-82
2022/11/07 03:38:00;;;;;;;6.00;5.32;;;;;;;;;;5052346;28;20422;-83
2022/11/07 03:40:28;;;;;;;5.60;5.10;;;;;;;;;;5052041;28;20049;-81
2022/11/07 03:42:55;;;;;;;6.78;5.50;;;;;;;;;;5053611;28;20067;-83
2022/11/07 03:45:22;;;;;;;7.63;5.28;;;;;;;;;;5052029;28;20045;-82
2022/11/07 03:47:49;;;;;;;5.60;4.85;;;;;;;;;;5052008;28;20530;-83
2022/11/07 03:50:18;;;;;;;6.00;4.72;;;;;;;;;;5052248;28;20135;-82
2022/11/07 03:52:45;;;;;;;6.00;5.35;;;;;;;;;;5051804;28;20048;-82
2022/11/07 03:55:14;;;;;;;5.50;5.00;;;;;;;;;;5052596;28;20136;-82
2022/11/07 03:57:42;;;;;;;5.13;4.57;;;;;;;;;;5051774;28;20048;-82
2022/11/07 04:00:10;;;;;;;6.63;5.25;;;;;;;;;;5051722;28;20052;-82
2022/11/07 04:02:37;;;;;;;4.43;4.13;;;;;;;;;;5051781;28;20060;-82
2022/11/07 04:05:05;;;;;;;5.53;4.28;;;;;;;;;;5051968;28;20049;-82
2022/11/07 04:07:32;;;;;;;4.13;3.72;;;;;;;;;;5051619;28;20052;-83
2022/11/07 04:09:59;;;;;;;7.13;4.30;;;;;;;;;;5051796;28;20056;-81
2022/11/07 04:17:59;;;;;;;4.28;3.88;;;;;;;;;;5052556;28;20136;-83
2022/11/07 04:20:27;;;;;;;3.85;3.55;;;;;;;;;;5051799;28;20075;-82
2022/11/07 04:22:54;;;;;;;3.85;3.55;;;;;;;;;;5051517;28;20052;-83
2022/11/07 04:27:41;;;;;;;3.70;3.40;;;;;;;;;;5051323;28;20048;-82
2022/11/07 04:28:08;;;;;;;3.92;3.63;;;;;;;;;;5052741;28;20053;-83
2022/11/07 04:30:35;;;;;;;3.40;3.20;;;;;;;;;;5051746;28;20051;-83
2022/11/07 04:33:03;;;;;;;5.40;4.90;;;;;;;;;;5051533;28;20061;-83
2022/11/07 04:35:31;;;;;;;4.07;3.53;;;;;;;;;;5054117;28;20060;-83
2022/11/07 04:37:59;;;;;;;4.90;3.22;;;;;;;;;;5056434;28;20053;-82
2022/11/07 04:40:26;;;;;;;3.22;3.03;;;;;;;;;;5056400;28;20068;-83
2022/11/07 04:42:54;;;;;;;5.55;3.80;;;;;;;;;;5055050;28;20075;-83
2022/11/07 04:45:21;;;;;;;3.40;3.10;;;;;;;;;;5056653;28;20049;-82
2022/11/07 04:47:48;;;;;;;3.85;3.40;;;;;;;;;;5055162;28;20049;-83
2022/11/07 04:50:17;;;;;;;3.08;2.92;;;;;;;;;;5056356;28;20447;-83
2022/11/07 04:52:45;;;;;;;3.45;2.70;;;;;;;;;;5055638;28;20049;-83
2022/11/07 04:55:18;;;;;;;2.78;2.60;;;;;;;;;;5055216;28;20049;-83
2022/11/07 04:57:45;;;;;;;4.07;3.05;;;;;;;;;;5056155;28;20137;-83
2022/11/07 05:00:12;;;;;;;2.85;2.65;;;;;;;;;;5054838;28;20052;-83
2022/11/07 05:02:40;;;;;;;2.35;2.15;;;;;;;;;;5055000;28;20052;-83
2022/11/07 05:05:07;;;;;;;3.05;2.25;;;;;;;;;;5055331;28;20041;-83
2022/11/07 05:07:34;;;;;;;3.92;2.42;;;;;;;;;;5058740;28;20041;-84
2022/11/07 05:10:01;;;;;;;2.63;2.33;;;;;;;;;;5061656;28;20081;-84
2022/11/07 05:12:29;;;;;;;4.32;2.47;;;;;;;;;;5061256;28;20049;-84
2022/11/07 05:14:56;;;;;;;2.10;2.00;;;;;;;;;;5062808;28;20263;-84
2022/11/07 05:17:23;;;;;;;2.95;2.35;;;;;;;;;;5061118;28;20082;-84
2022/11/07 05:19:54;;;;;;;4.03;2.58;;;;;;;;;;5061272;28;20575;-84
2022/11/07 05:25:07;;;;;;;14.38;3.95;;;;;;;;;;5060928;28;20045;-84
2022/11/07 05:27:34;;;;;;;22.77;4.20;;;;;;;;;;5059580;28;20056;-84
2022/11/07 05:30:02;;;;;;;3.88;2.28;;;;;;;;;;5055151;28;20051;-83
2022/11/07 05:32:29;;;;;;;9.70;3.05;;;;;;;;;;5054378;28;20072;-83
2022/11/07 05:34:56;;;;;;;7.68;2.95;;;;;;;;;;5055470;28;20059;-83
2022/11/07 05:37:23;;;;;;;5.90;2.67;;;;;;;;;;5054663;28;20059;-83
2022/11/07 05:39:51;;;;;;;4.80;2.10;;;;;;;;;;5057952;28;20100;-84
2022/11/07 05:42:21;;;;;;;2.65;2.45;;;;;;;;;;5059196;28;20064;-82
2022/11/07 05:44:48;;;;;;;2.78;2.50;;;;;;;;;;5059340;28;20049;-84
2022/11/07 05:47:15;;;;;;;5.72;2.72;;;;;;;;;;5058184;28;20049;-84
2022/11/07 05:49:42;;;;;;;3.20;2.50;;;;;;;;;;5058015;28;20045;-83
2022/11/07 05:52:09;;;;;;;6.25;2.90;;;;;;;;;;5057741;28;20430;-84
2022/11/07 05:54:37;;;;;;;6.50;2.42;;;;;;;;;;5057305;28;20135;-83
2022/11/07 05:57:04;;;;;;;3.60;2.40;;;;;;;;;;5057202;28;20146;-83
2022/11/07 05:59:31;;;;;;;5.75;2.55;;;;;;;;;;5059186;28;20507;-83
2022/11/07 06:01:58;;;;;;;6.25;2.72;;;;;;;;;;5059221;28;20135;-84
2022/11/07 06:04:25;;;;;;;5.00;3.10;;;;;;;;;;5056707;28;20056;-84
2022/11/07 06:06:53;;;;;;;5.97;2.72;;;;;;;;;;5058540;28;20057;-84
2022/11/07 06:09:20;;;;;;;6.20;3.05;;;;;;;;;;5058880;28;20049;-86
2022/11/07 06:11:47;;;;;;;14.43;2.67;;;;;;;;;;5056446;28;20049;-83
2022/11/07 06:14:14;;;;;;;8.95;2.78;;;;;;;;;;5058090;28;20045;-86
2022/11/07 06:16:41;;;;;;;7.53;2.80;;;;;;;;;;5056020;28;20641;-85
2022/11/07 06:19:09;;;;;;;5.55;2.53;;;;;;;;;;5056319;28;20049;-85
2022/11/07 06:21:36;;;;;;;15.57;3.38;;;;;;;;;;5056090;28;20048;-83
2022/11/07 06:24:03;;;;;;;9.77;2.55;;;;;;;;;;5055623;28;20049;-85
2022/11/07 06:26:30;;;;;;;7.38;2.55;;;;;;;;;;5055557;28;20048;-85
2022/11/07 06:28:58;;;;;;;5.05;2.90;;;;;;;;;;5055605;28;20052;-83
2022/11/07 06:31:25;;;;;;;7.90;3.30;;;;;;;;;;5055220;28;20050;-84
2022/11/07 06:33:52;;;;;;;4.72;2.80;;;;;;;;;;5054529;28;20044;-85
2022/11/07 06:36:19;;;;;;;7.00;2.55;;;;;;;;;;5053894;28;20053;-85
2022/11/07 06:38:51;;;;;;;7.85;2.50;;;;;;;;;;5053513;28;20057;-83
2022/11/07 06:41:19;;;;;;;6.28;2.38;;;;;;;;;;5054157;28;20053;-82
2022/11/07 06:43:46;;;;;;;17.30;6.88;;;;;;;;;;5054279;28;20053;-83
2022/11/07 06:46:16;;;;;;;10.63;4.80;;;;;;;;;;5053699;28;20045;-86
2022/11/07 06:48:43;;;;;;;4.72;3.17;;;;;;;;;;5054208;28;20522;-85
2022/11/07 06:51:11;;;;;;;4.72;3.28;;;;;;;;;;5056207;28;20414;-85
2022/11/07 06:53:38;;;;;;;4.63;3.10;;;;;;;;;;5054082;28;20056;-86
2022/11/07 06:56:06;;;;;;;7.22;3.65;;;;;;;;;;5053689;28;20076;-86
2022/11/07 06:58:33;;;;;;;5.20;2.83;;;;;;;;;;5053237;28;20052;-83
2022/11/07 07:01:01;;;;;;;4.00;3.33;;;;;;;;;;5056950;28;20053;-85
2022/11/07 07:03:29;;;;;;;6.93;3.47;;;;;;;;;;5057728;28;20114;-83
2022/11/07 07:06:00;;;;;;;9.07;3.00;;;;;;;;;;5055095;28;20128;-83
2022/11/07 07:08:28;;;;;;;5.18;3.15;;;;;;;;;;5055575;28;20041;-83
2022/11/07 07:10:55;;;;;;;10.48;3.03;;;;;;;;;;5054914;28;20049;-83
2022/11/07 07:13:22;;;;;;;8.95;3.20;;;;;;;;;;5054812;28;20048;-83
2022/11/07 07:15:56;;;;;;;9.70;3.33;;;;;;;;;;5054315;28;20055;-83
2022/11/07 07:18:24;;;;;;;10.68;4.07;;;;;;;;;;5056045;28;20076;-86
2022/11/07 07:20:51;;;;;;;9.02;3.53;;;;;;;;;;5055037;28;20048;-83
2022/11/07 07:23:20;;;;;;;7.40;2.95;;;;;;;;;;5057395;28;20081;-83
2022/11/07 07:25:48;;;;;;;4.53;3.13;;;;;;;;;;5056819;28;20469;-86
2022/11/07 07:28:15;;;;;;;5.22;3.05;;;;;;;;;;5055749;28;20072;-85
2022/11/07 07:30:42;;;;;;;5.20;3.33;;;;;;;;;;5056220;28;20045;-84
2022/11/07 07:33:16;;;;;;;4.45;3.10;;;;;;;;;;5057928;28;20094;-85
2022/11/07 07:35:44;;;;;;;7.57;3.05;;;;;;;;;;5055910;28;20083;-85
2022/11/07 07:38:11;;;;;;;2.55;2.33;;;;;;;;;;5053530;28;20059;-85
2022/11/07 07:40:39;;;;;;;5.90;2.90;;;;;;;;;;5054610;28;20045;-83
2022/11/07 07:43:06;;;;;;;7.43;2.85;;;;;;;;;;5054298;28;20049;-84
2022/11/07 07:45:33;;;;;;;12.18;3.47;;;;;;;;;;5055865;28;20059;-85
2022/11/07 07:48:03;;;;;;;16.95;2.92;;;;;;;;;;5055873;28;20045;-83
2022/11/07 07:50:31;;;;;;;14.68;2.78;;;;;;;;;;5052687;28;20395;-84
2022/11/07 07:52:58;;;;;;;8.45;2.42;;;;;;;;;;5053067;28;20056;-85
2022/11/07 07:55:29;;;;;;;7.07;2.28;;;;;;;;;;5053577;28;20115;-85
2022/11/07 07:57:56;;;;;;;2.50;1.90;;;;;;;;;;5052358;28;20499;-85
2022/11/07 08:00:24;;;;;;;5.18;1.85;;;;;;;;;;5052957;28;20052;-84
2022/11/07 08:02:51;;;;;;;7.32;1.90;;;;;;;;;;5055259;28;20091;-86
2022/11/07 08:05:18;;;;;;;3.53;1.70;;;;;;;;;;5056212;28;20491;-85
2022/11/07 08:07:50;;;;;;;4.13;1.83;;;;;;;;;;5054813;28;20045;-84
2022/11/07 08:10:18;;;;;;;3.20;1.73;;;;;;;;;;5056390;28;20041;-85
2022/11/07 08:13:05;;;;;;;2.80;1.70;;;;;;;;;;5054928;28;20446;-85
2022/11/07 08:15:32;;;;;;;4.25;2.72;;;;;;;;;;5056910;28;20573;-84
2022/11/07 08:18:01;;;;;;;4.90;1.85;;;;;;;;;;5054725;28;20053;-85
2022/11/07 08:20:28;;;;;;;3.45;1.70;;;;;;;;;;5054356;28;20055;-84
2022/11/07 08:23:03;;;;;;;5.47;1.77;;;;;;;;;;5054997;28;20045;-84
2022/11/07 08:25:30;;;;;;;7.65;1.70;;;;;;;;;;5052923;28;20049;-86
2022/11/07 08:27:57;;;;;;;3.58;1.20;;;;;;;;;;5053801;28;20124;-84
2022/11/07 08:30:25;;;;;;;6.20;1.77;;;;;;;;;;5053242;28;20045;-84
2022/11/07 08:32:53;;;;;;;5.18;1.90;;;;;;;;;;5055587;28;20063;-85
2022/11/07 08:35:20;;;;;;;4.30;2.00;;;;;;;;;;5053949;28;20052;-84
2022/11/07 08:37:47;;;;;;;3.28;1.52;;;;;;;;;;5055075;28;20051;-85
2022/11/07 08:40:14;;;;;;;5.43;2.10;;;;;;;;;;5053891;28;20060;-84
2022/11/07 08:42:42;;;;;;;4.65;1.05;;;;;;;;;;5054840;28;20191;-85
2022/11/07 08:45:10;;;;;;;4.35;1.10;;;;;;;;;;5053263;28;20132;-84
2022/11/07 08:47:37;;;;;;;9.02;1.45;;;;;;;;;;5053509;28;20045;-85
2022/11/07 08:50:05;;;;;;;5.15;1.70;;;;;;;;;;5056093;28;20499;-83
2022/11/07 08:52:33;;;;;;;5.78;1.80;;;;;;;;;;5056640;28;20443;-88
2022/11/07 08:55:01;;;;;;;4.30;1.23;;;;;;;;;;5056473;28;20128;-86
2022/11/07 08:57:28;;;;;;;8.23;1.50;;;;;;;;;;5054780;28;20049;-85
2022/11/07 08:59:55;;;;;;;4.10;1.73;;;;;;;;;;5052479;28;20053;-84
2022/11/07 09:02:22;;;;;;;4.32;1.58;;;;;;;;;;5053848;28;20064;-86
2022/11/07 09:05:10;;;;;;;5.53;1.65;;;;;;;;;;5053331;28;20499;-85
2022/11/07 09:07:38;;;;;;;4.30;1.45;;;;;;;;;;5056129;28;20041;-86
2022/11/07 09:10:06;;;;;;;4.55;1.80;;;;;;;;;;5054447;28;20045;-83
2022/11/07 09:12:33;;;;;;;6.28;1.67;;;;;;;;;;5054089;28;20052;-84
2022/11/07 09:15:00;;;;;;;3.88;1.30;;;;;;;;;;5057198;28;20115;-86
2022/11/07 09:17:27;;;;;;;7.15;1.42;;;;;;;;;;5056195;28;20056;-87
2022/11/07 09:19:55;;;;;;;4.15;1.50;;;;;;;;;;5057883;28;20059;-86
2022/11/07 09:22:22;;;;;;;5.70;1.90;;;;;;;;;;5056528;28;20055;-85
2022/11/07 09:24:49;;;;;;;6.07;2.03;;;;;;;;;;5056487;28;20053;-85
2022/11/07 09:27:16;;;;;;;6.05;1.50;;;;;;;;;;5056384;28;20040;-85
2022/11/07 09:29:44;;;;;;;5.10;1.58;;;;;;;;;;5057474;28;20052;-83
2022/11/07 09:32:11;;;;;;;3.00;1.25;;;;;;;;;;5057594;28;20087;-83
2022/11/07 09:34:59;;;;;;;7.88;1.30;;;;;;;;;;5057050;28;20049;-84
2022/11/07 09:37:31;;;;;;;3.53;1.10;;;;;;;;;;5058436;28;20488;-85
2022/11/07 09:39:58;;;;;;;3.95;1.10;;;;;;;;;;5068441;22;20561;-81
2022/11/07 09:42:29;;;;;;;4.85;1.67;;;;;;;;;;5023506;28;20046;-81
2022/11/07 09:44:57;;;;;;;6.38;1.33;;;;;;;;;;5039378;28;20475;-82
2022/11/07 09:47:25;;;;;;;6.10;1.52;;;;;;;;;;5039123;28;20102;-80
2022/11/07 09:49:55;;;;;;;2.35;1.20;;;;;;;;;;5037668;28;20495;-78
2022/11/07 09:52:29;;;;;;;2.70;1.60;;;;;;;;;;5038313;28;20042;-84
2022/11/07 09:55:17;;;;;;;3.13;1.50;;;;;;;;;;5021962;28;20045;-78
2022/11/07 09:57:45;;;;;;;4.03;1.55;;;;;;;;;;5021622;28;20074;-79
2022/11/07 10:00:17;;;;;;;4.05;1.70;;;;;;;;;;5038378;28;20132;-79
2022/11/07 10:02:46;;;;;;;6.60;1.67;;;;;;;;;;5037724;28;20084;-81
2022/11/07 10:05:15;;;;;;;3.20;1.50;;;;;;;;;;5037792;28;20124;-79
2022/11/07 10:07:55;;;;;;;11.07;1.98;;;;;;;;;;5037924;28;20137;-81
2022/11/07 10:10:31;;;;;;;4.63;1.88;;;;;;;;;;5021974;28;20401;-79
2022/11/07 10:12:58;;;;;;;9.07;1.77;;;;;;;;;;5037032;28;20062;-82
2022/11/07 10:15:49;;;;;;;9.23;2.22;;;;;;;;;;5043224;28;20114;-80
2022/11/07 10:18:43;;;;;;;2.72;1.50;;;;;;;;;;5052340;28;20053;-79
2022/11/07 10:21:10;;;;;;;3.50;1.73;;;;;;;;;;5018060;28;20136;-80
2022/11/07 10:24:16;;;;;;;6.82;2.20;;;;;;;;;;5021891;28;20133;-79
2022/11/07 10:26:44;;;;;;;3.70;1.10;;;;;;;;;;5038398;28;20083;-80
2022/11/07 10:29:16;;;;;;;4.63;1.50;;;;;;;;;;5036231;28;20121;-78
2022/11/07 10:31:59;;;;;;;19.80;2.03;;;;;;;;;;5036385;28;20088;-79
2022/11/07 10:34:31;;;;;;;8.38;1.50;;;;;;;;;;5036012;28;20069;-79
2022/11/07 10:36:59;;;;;;;5.93;1.35;;;;;;;;;;5035586;28;20050;-79
2022/11/07 10:39:29;;;;;;;7.28;1.40;;;;;;;;;;5038236;28;20080;-78
2022/11/07 10:42:15;;;;;;;21.50;3.03;;;;;;;;;;5037671;28;20057;-78
2022/11/07 10:44:43;;;;;;;4.95;1.20;;;;;;;;;;5038937;28;20092;-78
2022/11/07 10:47:14;;;;;;;4.75;2.13;;;;;;;;;;5038295;28;20514;-78
2022/11/07 10:49:52;;;;;;;20.80;2.10;;;;;;;;;;5038615;28;20061;-79
2022/11/07 10:52:20;;;;;;;16.33;2.35;;;;;;;;;;5025231;28;20081;-80
2022/11/07 10:54:47;;;;;;;14.50;2.30;;;;;;;;;;5040552;28;20046;-80
2022/11/07 10:57:19;;;;;;;5.47;1.20;;;;;;;;;;5039910;28;20054;-77
2022/11/07 10:59:49;;;;;;;6.82;1.23;;;;;;;;;;5038851;28;20061;-77
2022/11/07 11:02:30;;;;;;;30.73;2.78;;;;;;;;;;5039410;28;20100;-79
2022/11/07 11:04:59;;;;;;;4.78;1.85;;;;;;;;;;5038540;28;20053;-82
2022/11/07 11:07:34;;;;;;;6.70;1.50;;;;;;;;;;5036711;28;20104;-83
2022/11/07 11:10:02;;;;;;;4.82;1.17;;;;;;;;;;5036860;28;20056;-81
2022/11/07 11:12:32;;;;;;;11.95;2.03;;;;;;;;;;5037944;28;20045;-81
2022/11/07 11:15:10;;;;;;;35.72;4.13;;;;;;;;;;5037098;28;20053;-81
2022/11/07 11:17:38;;;;;;;7.45;1.70;;;;;;;;;;5037772;28;20081;-82
2022/11/07 11:20:06;;;;;;;6.00;1.30;;;;;;;;;;5037962;28;20513;-83
2022/11/07 11:22:39;;;;;;;4.32;1.23;;;;;;;;;;5021795;28;20132;-82
2022/11/07 11:25:19;;;;;;;11.77;1.80;;;;;;;;;;5021146;28;20140;-81
2022/11/07 11:27:48;;;;;;;4.00;1.10;;;;;;;;;;5037899;28;20495;-81
2022/11/07 11:30:19;;;;;;;4.53;1.20;;;;;;;;;;5034999;28;20073;-82
2022/11/07 11:32:53;;;;;;;5.38;1.23;;;;;;;;;;5035099;28;20088;-81
2022/11/07 11:35:23;;;;;;;7.18;1.60;;;;;;;;;;5036101;28;20073;-81
2022/11/07 11:37:57;;;;;;;3.50;1.23;;;;;;;;;;5021273;28;20474;-81
2022/11/07 11:40:28;;;;;;;8.20;1.50;;;;;;;;;;5035580;28;20077;-82
2022/11/07 11:43:27;;;;;;;7.50;1.35;;;;;;;;;;5035506;28;20046;-81
2022/11/07 11:46:08;;;;;;;21.33;2.63;;;;;;;;;;5008000;28;20114;-81
2022/11/07 11:48:40;;;;;;;3.58;1.30;;;;;;;;;;5020307;28;20049;-83
2022/11/07 11:51:10;;;;;;;8.35;1.17;;;;;;;;;;5035288;28;20073;-82
2022/11/07 11:53:38;;;;;;;4.75;0.90;;;;;;;;;;5036167;28;20070;-81
2022/11/07 11:56:05;;;;;;;3.88;1.10;;;;;;;;;;5036023;28;20054;-82
2022/11/07 11:58:38;;;;;;;5.50;1.50;;;;;;;;;;5020187;28;20091;-82
2022/11/07 12:01:12;;;;;;;5.78;1.48;;;;;;;;;;5034819;28;20076;-83
2022/11/07 12:03:55;;;;;;;9.57;1.17;;;;;;;;;;5036664;28;20069;-82
2022/11/07 12:06:48;;;;;;;7.00;1.25;;;;;;;;;;5036002;28;20060;-82
2022/11/07 12:09:24;;;;;;;11.68;1.75;;;;;;;;;;5035196;28;20117;-82
2022/11/07 12:11:54;;;;;;;5.80;1.52;;;;;;;;;;5031202;28;20137;-83
2022/11/07 12:14:25;;;;;;;6.60;1.00;;;;;;;;;;5029263;28;20042;-82
2022/11/07 12:16:52;;;;;;;8.05;1.50;;;;;;;;;;5054179;28;20085;-82
2022/11/07 12:19:22;;;;;;;5.90;1.48;;;;;;;;;;5036030;28;20040;-81
2022/11/07 12:22:08;;;;;;;7.32;0.90;;;;;;;;;;5041725;28;20499;-83
2022/11/07 12:24:39;;;;;;;3.88;1.05;;;;;;;;;;5026376;28;20066;-83
2022/11/07 12:27:06;;;;;;;7.13;1.30;;;;;;;;;;5041139;28;20065;-82
2022/11/07 12:29:39;;;;;;;11.75;1.40;;;;;;;;;;5026983;28;20141;-79
2022/11/07 12:32:06;;;;;;;7.28;1.30;;;;;;;;;;5039350;28;20085;-80
2022/11/07 12:34:34;;;;;;;2.00;0.80;;;;;;;;;;5036647;28;20137;-81
2022/11/07 12:37:09;;;;;;;4.68;0.88;;;;;;;;;;5021397;28;20104;-82
2022/11/07 12:39:53;;;;;;;4.78;1.15;;;;;;;;;;5035388;28;20414;-83
2022/11/07 12:42:33;;;;;;;14.30;2.17;;;;;;;;;;5035865;28;20137;-82
2022/11/07 12:45:19;;;;;;;4.10;1.00;;;;;;;;;;5034845;28;20144;-82
2022/11/07 12:48:05;;;;;;;3.97;1.02;;;;;;;;;;5036066;28;20046;-82
2022/11/07 12:50:54;;;;;;;5.75;1.17;;;;;;;;;;5034695;28;20064;-82
2022/11/07 12:53:22;;;;;;;4.30;1.30;;;;;;;;;;5036132;28;20062;-82
2022/11/07 12:56:01;;;;;;;3.47;1.30;;;;;;;;;;5035226;28;20503;-80
2022/11/07 12:58:30;;;;;;;5.25;1.02;;;;;;;;;;5038607;28;20141;-81
2022/11/07 13:00:59;;;;;;;2.85;0.90;;;;;;;;;;5038755;28;20136;-83
2022/11/07 13:03:49;;;;;;;5.93;1.38;;;;;;;;;;5036410;28;20065;-81
2022/11/07 13:06:30;;;;;;;4.82;1.40;;;;;;;;;;5039605;28;20080;-80
2022/11/07 13:09:00;;;;;;;3.65;1.30;;;;;;;;;;5024763;28;20050;-81
2022/11/07 13:11:33;;;;;;;7.20;1.73;;;;;;;;;;5039529;28;20133;-82
2022/11/07 13:14:01;;;;;;;5.82;1.50;;;;;;;;;;5023928;28;20076;-82
2022/11/07 13:16:29;;;;;;;3.15;0.80;;;;;;;;;;5038739;28;20081;-82
2022/11/07 13:19:07;;;;;;;4.07;1.05;;;;;;;;;;5040457;28;20050;-83
2022/11/07 13:21:42;;;;;;;7.45;1.65;;;;;;;;;;5039024;28;20064;-83
2022/11/07 13:24:20;;;;;;;4.50;1.10;;;;;;;;;;5039684;28;20529;-83
2022/11/07 13:26:47;;;;;;;6.35;1.40;;;;;;;;;;5038266;28;20053;-83
2022/11/07 13:29:23;;;;;;;5.85;1.20;;;;;;;;;;5037985;28;20046;-83
2022/11/07 13:32:09;;;;;;;12.35;1.33;;;;;;;;;;5037833;28;20053;-82
2022/11/07 13:34:49;;;;;;;4.70;1.35;;;;;;;;;;5019721;28;20077;-83
2022/11/07 13:37:36;;;;;;;6.15;1.45;;;;;;;;;;5035281;28;20049;-82
2022/11/07 13:40:10;;;;;;;4.70;1.10;;;;;;;;;;5017126;28;20057;-82
2022/11/07 13:42:39;;;;;;;7.20;1.45;;;;;;;;;;5035049;28;20129;-82
2022/11/07 13:45:31;;;;;;;11.35;1.63;;;;;;;;;;5018729;28;20085;-81
2022/11/07 13:48:00;;;;;;;6.90;1.13;;;;;;;;;;5017337;28;20058;-82
2022/11/07 13:50:34;;;;;;;2.85;1.17;;;;;;;;;;5022762;28;20049;-83
2022/11/07 13:53:04;;;;;;;9.18;1.60;;;;;;;;;;5038163;28;20053;-83
2022/11/07 13:55:38;;;;;;;6.00;1.17;;;;;;;;;;5037125;28;20096;-83
2022/11/07 13:58:05;;;;;;;;;;;;;;;;;;5037915;28;20048;-83
2022/11/07 14:00:33;;;;;;;16.10;1.85;;;;;;;;;;5022089;28;19922;-83
2022/11/07 14:03:01;;;;;;;8.68;1.33;;;;;;;;;;5037176;28;20046;-82
2022/11/07 14:05:35;;;;;;;7.80;1.40;;;;;;;;;;5019071;28;20050;-82
2022/11/07 14:08:05;;;;;;;21.45;2.20;;;;;;;;;;5017050;28;20045;-81
2022/11/07 14:10:35;;;;;;;23.88;3.15;;;;;;;;;;5033457;28;20042;-82
2022/11/07 14:13:09;;;;;;;19.58;2.00;;;;;;;;;;5053089;28;20065;-81
2022/11/07 14:15:42;;;;;;;9.70;1.30;;;;;;;;;;5042088;28;20133;-83
2022/11/07 14:18:10;;;;;;;;;;;;;;;;;;5017649;28;20050;-83
2022/11/07 14:20:37;;;;;;;10.52;1.40;;;;;;;;;;5018515;28;20623;-82
2022/11/07 14:23:11;;;;;;;5.25;1.30;;;;;;;;;;5034820;28;20137;-81
2022/11/07 14:25:39;;;;;;;9.45;1.23;;;;;;;;;;5035024;28;20050;-81
2022/11/07 14:28:13;;;;;;;3.35;0.88;;;;;;;;;;5035706;28;20128;-82
2022/11/07 14:30:42;;;;;;;5.75;1.50;;;;;;;;;;5034975;28;20141;-83
2022/11/07 14:33:27;;;;;;;8.50;1.42;;;;;;;;;;5020568;28;20113;-82
2022/11/07 14:35:54;;;;;;;7.40;1.65;;;;;;;;;;5035261;28;20045;-83
2022/11/07 14:38:24;;;;;;;10.43;1.70;;;;;;;;;;5034740;28;20136;-81
2022/11/07 14:40:53;;;;;;;4.60;0.98;;;;;;;;;;5032288;28;20053;-82
2022/11/07 14:43:21;;;;;;;7.70;1.80;;;;;;;;;;5018650;28;20073;-82
2022/11/07 14:45:49;;;;;;;10.10;2.30;;;;;;;;;;5034947;28;20053;-82
2022/11/07 14:48:38;;;;;;;6.25;1.23;;;;;;;;;;5033199;28;20050;-82
2022/11/07 14:51:05;;;;;;;10.38;2.03;;;;;;;;;;5020530;28;20056;-83
2022/11/07 14:53:41;;;;;;;8.23;1.50;;;;;;;;;;5032282;28;20559;-82
2022/11/07 14:56:11;;;;;;;16.38;1.75;;;;;;;;;;5033620;28;20072;-80
2022/11/07 14:58:38;;;;;;;3.70;1.00;;;;;;;;;;5031303;28;20085;-81
2022/11/07 15:01:06;;;;;;;3.50;1.15;;;;;;;;;;5033082;28;20057;-81
2022/11/07 15:03:35;;;;;;;12.05;1.60;;;;;;;;;;5032097;28;20071;-82
2022/11/07 15:06:02;;;;;;;13.23;1.80;;;;;;;;;;5030576;28;20419;-83
2022/11/07 15:08:30;;;;;;;6.40;0.95;;;;;;;;;;5031346;28;20045;-81